Sechelt, Canada
Current Conditions -  °F | °C
As of 11:00 AM on Thursday 18 Dec 2014 (Local Time) from CYCD Reporting Station
Haze Haze  
Wind Chill: 41°   Ceiling: 500
Heat Index: 45°   Visibility: 5mi
Dew Point: 43°   Wind: 7mph
Humidity: 93%   Direction: 90°E
Pressure: 29.86"   Gusts: NA
Location:  49.47°N, 123.77°W
Report Text: CYCD 181900Z 09006KT 5SM BR BKN005 OVC015 07/06 A2986 RMK SF6SC2 CIG RAG SLP112
Loading
Personal Weather Stations






























Interactive Weather Map New forecast layout! Learn more

10-Day Weather Forecast

Advertisements
Track Severe Weather on mobile